sensor_id;sensor_type;location;lat;lon;timestamp;temperature;humidity
2897;DHT22;1458;49.728;9.228;2023-07-13T00:00:42;18.80;65.70
2897;DHT22;1458;49.728;9.228;2023-07-13T00:03:10;18.70;65.50
2897;DHT22;1458;49.728;9.228;2023-07-13T00:05:40;18.70;65.40
2897;DHT22;1458;49.728;9.228;2023-07-13T00:08:08;18.70;65.30
2897;DHT22;1458;49.728;9.228;2023-07-13T00:10:39;18.50;65.30
2897;DHT22;1458;49.728;9.228;2023-07-13T00:13:08;18.40;65.30
2897;DHT22;1458;49.728;9.228;2023-07-13T00:15:35;18.50;64.80
2897;DHT22;1458;49.728;9.228;2023-07-13T00:18:03;18.50;63.80
2897;DHT22;1458;49.728;9.228;2023-07-13T00:20:30;18.40;64.50
2897;DHT22;1458;49.728;9.228;2023-07-13T00:23:00;18.30;64.50
2897;DHT22;1458;49.728;9.228;2023-07-13T00:25:28;18.30;65.10
2897;DHT22;1458;49.728;9.228;2023-07-13T00:27:55;18.20;63.80
2897;DHT22;1458;49.728;9.228;2023-07-13T00:30:23;18.10;64.00
2897;DHT22;1458;49.728;9.228;2023-07-13T00:32:51;18.10;64.50
2897;DHT22;1458;49.728;9.228;2023-07-13T00:35:19;18.00;64.00
2897;DHT22;1458;49.728;9.228;2023-07-13T00:37:46;17.90;63.60
2897;DHT22;1458;49.728;9.228;2023-07-13T00:40:16;18.00;63.50
2897;DHT22;1458;49.728;9.228;2023-07-13T00:42:45;18.00;64.70
2897;DHT22;1458;49.728;9.228;2023-07-13T00:48:43;17.80;65.10
2897;DHT22;1458;49.728;9.228;2023-07-13T00:51:16;17.80;63.50
2897;DHT22;1458;49.728;9.228;2023-07-13T00:53:46;17.90;63.70
2897;DHT22;1458;49.728;9.228;2023-07-13T00:56:15;17.90;63.30
2897;DHT22;1458;49.728;9.228;2023-07-13T00:58:44;18.00;62.70
2897;DHT22;1458;49.728;9.228;2023-07-13T01:01:12;17.90;62.90
2897;DHT22;1458;49.728;9.228;2023-07-13T01:03:40;17.90;63.60
2897;DHT22;1458;49.728;9.228;2023-07-13T01:06:07;17.90;64.00
2897;DHT22;1458;49.728;9.228;2023-07-13T01:08:35;18.00;63.20
2897;DHT22;1458;49.728;9.228;2023-07-13T01:11:02;17.80;64.00
2897;DHT22;1458;49.728;9.228;2023-07-13T01:13:31;17.80;63.90
2897;DHT22;1458;49.728;9.228;2023-07-13T01:16:05;17.90;65.10
2897;DHT22;1458;49.728;9.228;2023-07-13T01:18:40;17.80;64.90
2897;DHT22;1458;49.728;9.228;2023-07-13T01:21:08;17.60;66.20
2897;DHT22;1458;49.728;9.228;2023-07-13T01:23:36;17.60;66.10
2897;DHT22;1458;49.728;9.228;2023-07-13T01:26:03;17.60;66.20
2897;DHT22;1458;49.728;9.228;2023-07-13T01:28:31;17.50;65.40
2897;DHT22;1458;49.728;9.228;2023-07-13T01:31:02;17.50;65.70
2897;DHT22;1458;49.728;9.228;2023-07-13T01:33:30;17.60;66.10
2897;DHT22;1458;49.728;9.228;2023-07-13T01:35:58;17.50;67.10
2897;DHT22;1458;49.728;9.228;2023-07-13T01:38:26;17.40;67.30
2897;DHT22;1458;49.728;9.228;2023-07-13T01:40:54;17.20;68.20
2897;DHT22;1458;49.728;9.228;2023-07-13T01:43:24;17.20;68.00
2897;DHT22;1458;49.728;9.228;2023-07-13T01:45:51;17.00;69.70
2897;DHT22;1458;49.728;9.228;2023-07-13T01:48:19;17.00;70.00
2897;DHT22;1458;49.728;9.228;2023-07-13T01:50:48;17.00;69.60
2897;DHT22;1458;49.728;9.228;2023-07-13T01:53:15;17.00;69.50
2897;DHT22;1458;49.728;9.228;2023-07-13T01:55:44;16.90;69.00
2897;DHT22;1458;49.728;9.228;2023-07-13T01:58:11;17.00;68.60
2897;DHT22;1458;49.728;9.228;2023-07-13T02:00:39;16.90;69.30
2897;DHT22;1458;49.728;9.228;2023-07-13T02:03:06;16.80;69.50
2897;DHT22;1458;49.728;9.228;2023-07-13T02:05:34;16.80;70.20
2897;DHT22;1458;49.728;9.228;2023-07-13T02:08:01;16.50;72.40
2897;DHT22;1458;49.728;9.228;2023-07-13T02:10:30;16.50;72.10
2897;DHT22;1458;49.728;9.228;2023-07-13T02:12:59;16.30;72.80
2897;DHT22;1458;49.728;9.228;2023-07-13T02:15:27;16.40;72.60
2897;DHT22;1458;49.728;9.228;2023-07-13T02:17:54;16.40;72.70
2897;DHT22;1458;49.728;9.228;2023-07-13T02:20:22;16.40;72.60
2897;DHT22;1458;49.728;9.228;2023-07-13T02:22:50;16.50;71.40
2897;DHT22;1458;49.728;9.228;2023-07-13T02:25:20;16.50;72.20
2897;DHT22;1458;49.728;9.228;2023-07-13T02:27:48;16.30;73.40
2897;DHT22;1458;49.728;9.228;2023-07-13T02:30:18;16.30;73.60
2897;DHT22;1458;49.728;9.228;2023-07-13T02:32:46;16.10;73.90
2897;DHT22;1458;49.728;9.228;2023-07-13T02:35:13;16.10;73.60
2897;DHT22;1458;49.728;9.228;2023-07-13T02:37:40;16.10;73.90
2897;DHT22;1458;49.728;9.228;2023-07-13T02:40:09;16.20;73.60
2897;DHT22;1458;49.728;9.228;2023-07-13T02:42:36;16.20;73.90
2897;DHT22;1458;49.728;9.228;2023-07-13T02:45:04;16.10;74.30
2897;DHT22;1458;49.728;9.228;2023-07-13T02:47:34;16.00;74.20
2897;DHT22;1458;49.728;9.228;2023-07-13T02:50:02;16.00;74.90
2897;DHT22;1458;49.728;9.228;2023-07-13T02:52:31;16.00;75.00
2897;DHT22;1458;49.728;9.228;2023-07-13T02:54:59;15.90;75.20
2897;DHT22;1458;49.728;9.228;2023-07-13T02:57:26;15.90;75.20
2897;DHT22;1458;49.728;9.228;2023-07-13T02:59:54;15.90;76.00
2897;DHT22;1458;49.728;9.228;2023-07-13T03:02:21;15.80;76.40
2897;DHT22;1458;49.728;9.228;2023-07-13T03:04:50;15.70;76.70
2897;DHT22;1458;49.728;9.228;2023-07-13T03:07:18;15.70;76.60
2897;DHT22;1458;49.728;9.228;2023-07-13T03:09:48;15.60;77.30
2897;DHT22;1458;49.728;9.228;2023-07-13T03:12:15;15.60;77.90
2897;DHT22;1458;49.728;9.228;2023-07-13T03:14:43;15.60;78.50
2897;DHT22;1458;49.728;9.228;2023-07-13T03:17:10;15.50;79.80
2897;DHT22;1458;49.728;9.228;2023-07-13T03:19:40;15.60;79.50
2897;DHT22;1458;49.728;9.228;2023-07-13T03:22:10;15.50;80.00
2897;DHT22;1458;49.728;9.228;2023-07-13T03:24:39;15.50;80.70
2897;DHT22;1458;49.728;9.228;2023-07-13T03:27:07;15.60;80.40
2897;DHT22;1458;49.728;9.228;2023-07-13T03:29:37;15.50;81.70
2897;DHT22;1458;49.728;9.228;2023-07-13T03:32:06;15.30;82.00
2897;DHT22;1458;49.728;9.228;2023-07-13T03:34:34;15.30;82.60
2897;DHT22;1458;49.728;9.228;2023-07-13T03:37:02;15.40;82.50
2897;DHT22;1458;49.728;9.228;2023-07-13T03:39:31;15.50;82.20
2897;DHT22;1458;49.728;9.228;2023-07-13T03:41:59;15.70;80.80
2897;DHT22;1458;49.728;9.228;2023-07-13T03:44:27;15.70;80.60
2897;DHT22;1458;49.728;9.228;2023-07-13T03:46:56;15.70;80.20
2897;DHT22;1458;49.728;9.228;2023-07-13T03:49:24;15.70;79.40
2897;DHT22;1458;49.728;9.228;2023-07-13T03:51:51;15.80;79.70
2897;DHT22;1458;49.728;9.228;2023-07-13T03:54:19;15.90;79.70
2897;DHT22;1458;49.728;9.228;2023-07-13T03:56:47;16.00;79.20
2897;DHT22;1458;49.728;9.228;2023-07-13T03:59:19;16.10;79.00
2897;DHT22;1458;49.728;9.228;2023-07-13T04:01:46;16.00;78.90
2897;DHT22;1458;49.728;9.228;2023-07-13T04:04:13;16.10;79.40
2897;DHT22;1458;49.728;9.228;2023-07-13T04:06:41;16.00;80.40
2897;DHT22;1458;49.728;9.228;2023-07-13T04:09:11;16.00;81.50
2897;DHT22;1458;49.728;9.228;2023-07-13T04:11:38;15.90;82.30
2897;DHT22;1458;49.728;9.228;2023-07-13T04:14:07;15.90;82.10
2897;DHT22;1458;49.728;9.228;2023-07-13T04:16:35;15.80;82.50
2897;DHT22;1458;49.728;9.228;2023-07-13T04:19:02;15.90;81.40
2897;DHT22;1458;49.728;9.228;2023-07-13T04:21:31;15.90;82.50
2897;DHT22;1458;49.728;9.228;2023-07-13T04:23:59;15.70;83.90
2897;DHT22;1458;49.728;9.228;2023-07-13T04:26:26;15.70;85.10
2897;DHT22;1458;49.728;9.228;2023-07-13T04:28:54;15.40;85.30
2897;DHT22;1458;49.728;9.228;2023-07-13T04:31:23;15.50;86.20
2897;DHT22;1458;49.728;9.228;2023-07-13T04:33:50;16.20;85.00
2897;DHT22;1458;49.728;9.228;2023-07-13T04:36:19;16.70;81.40
2897;DHT22;1458;49.728;9.228;2023-07-13T04:38:46;17.30;77.80
2897;DHT22;1458;49.728;9.228;2023-07-13T04:41:15;17.20;76.70
2897;DHT22;1458;49.728;9.228;2023-07-13T04:43:42;17.20;76.70
2897;DHT22;1458;49.728;9.228;2023-07-13T04:46:12;16.90;76.80
2897;DHT22;1458;49.728;9.228;2023-07-13T04:48:44;16.80;76.90
2897;DHT22;1458;49.728;9.228;2023-07-13T04:51:12;17.10;77.10
2897;DHT22;1458;49.728;9.228;2023-07-13T04:53:39;18.00;74.70
2897;DHT22;1458;49.728;9.228;2023-07-13T04:56:07;18.30;72.00
2897;DHT22;1458;49.728;9.228;2023-07-13T04:58:34;18.70;70.00
2897;DHT22;1458;49.728;9.228;2023-07-13T05:01:03;18.80;69.30
2897;DHT22;1458;49.728;9.228;2023-07-13T05:03:31;18.70;67.80
2897;DHT22;1458;49.728;9.228;2023-07-13T05:06:03;18.30;69.00
2897;DHT22;1458;49.728;9.228;2023-07-13T05:08:32;18.70;68.50
2897;DHT22;1458;49.728;9.228;2023-07-13T05:11:00;19.40;67.70
2897;DHT22;1458;49.728;9.228;2023-07-13T05:13:28;19.90;65.00
2897;DHT22;1458;49.728;9.228;2023-07-13T05:15:57;20.00;63.50
2897;DHT22;1458;49.728;9.228;2023-07-13T05:18:25;19.90;64.30
2897;DHT22;1458;49.728;9.228;2023-07-13T05:21:01;19.80;64.30
2897;DHT22;1458;49.728;9.228;2023-07-13T05:23:30;20.30;63.60
2897;DHT22;1458;49.728;9.228;2023-07-13T05:25:59;20.60;64.60
2897;DHT22;1458;49.728;9.228;2023-07-13T05:28:27;20.60;62.30
2897;DHT22;1458;49.728;9.228;2023-07-13T05:30:54;20.40;62.50
2897;DHT22;1458;49.728;9.228;2023-07-13T05:33:22;20.60;63.90
2897;DHT22;1458;49.728;9.228;2023-07-13T05:35:49;20.60;62.90
2897;DHT22;1458;49.728;9.228;2023-07-13T05:38:18;20.60;61.10
2897;DHT22;1458;49.728;9.228;2023-07-13T05:40:46;20.70;62.30
2897;DHT22;1458;49.728;9.228;2023-07-13T05:43:14;20.80;62.90
2897;DHT22;1458;49.728;9.228;2023-07-13T05:45:41;21.00;63.10
2897;DHT22;1458;49.728;9.228;2023-07-13T05:48:09;21.10;62.70
2897;DHT22;1458;49.728;9.228;2023-07-13T05:50:36;21.30;60.80
2897;DHT22;1458;49.728;9.228;2023-07-13T05:53:03;21.40;58.70
2897;DHT22;1458;49.728;9.228;2023-07-13T05:55:33;21.60;60.20
2897;DHT22;1458;49.728;9.228;2023-07-13T05:58:01;21.60;60.60
2897;DHT22;1458;49.728;9.228;2023-07-13T06:00:28;21.50;60.20
2897;DHT22;1458;49.728;9.228;2023-07-13T06:02:56;21.10;60.30
2897;DHT22;1458;49.728;9.228;2023-07-13T06:05:24;21.10;60.30
2897;DHT22;1458;49.728;9.228;2023-07-13T06:07:52;21.10;61.60
2897;DHT22;1458;49.728;9.228;2023-07-13T06:10:20;21.10;61.00
2897;DHT22;1458;49.728;9.228;2023-07-13T06:12:49;21.20;60.50
2897;DHT22;1458;49.728;9.228;2023-07-13T06:15:16;21.50;58.90
2897;DHT22;1458;49.728;9.228;2023-07-13T06:17:44;21.70;59.10
2897;DHT22;1458;49.728;9.228;2023-07-13T06:20:11;21.70;55.20
2897;DHT22;1458;49.728;9.228;2023-07-13T06:22:38;21.90;54.20
2897;DHT22;1458;49.728;9.228;2023-07-13T06:25:07;22.10;51.50
2897;DHT22;1458;49.728;9.228;2023-07-13T06:27:35;22.10;50.30
2897;DHT22;1458;49.728;9.228;2023-07-13T06:30:04;22.20;53.10
2897;DHT22;1458;49.728;9.228;2023-07-13T06:32:32;22.30;50.70
2897;DHT22;1458;49.728;9.228;2023-07-13T06:35:00;22.40;49.20
2897;DHT22;1458;49.728;9.228;2023-07-13T06:37:27;22.40;47.80
2897;DHT22;1458;49.728;9.228;2023-07-13T06:39:55;22.50;45.00
2897;DHT22;1458;49.728;9.228;2023-07-13T06:42:22;22.40;43.00
2897;DHT22;1458;49.728;9.228;2023-07-13T06:44:49;22.30;40.70
2897;DHT22;1458;49.728;9.228;2023-07-13T06:47:18;22.00;41.00
2897;DHT22;1458;49.728;9.228;2023-07-13T06:49:46;22.10;40.60
2897;DHT22;1458;49.728;9.228;2023-07-13T06:52:13;22.30;38.30
2897;DHT22;1458;49.728;9.228;2023-07-13T06:54:40;22.20;37.90
2897;DHT22;1458;49.728;9.228;2023-07-13T06:57:08;22.20;37.90
2897;DHT22;1458;49.728;9.228;2023-07-13T06:59:35;22.50;36.80
2897;DHT22;1458;49.728;9.228;2023-07-13T07:02:03;22.50;36.10
2897;DHT22;1458;49.728;9.228;2023-07-13T07:04:32;22.80;36.20
2897;DHT22;1458;49.728;9.228;2023-07-13T07:07:00;23.00;34.90
2897;DHT22;1458;49.728;9.228;2023-07-13T07:09:27;23.00;35.50
2897;DHT22;1458;49.728;9.228;2023-07-13T07:11:55;23.00;34.10
2897;DHT22;1458;49.728;9.228;2023-07-13T07:14:23;23.10;32.30
2897;DHT22;1458;49.728;9.228;2023-07-13T07:16:50;23.00;31.30
2897;DHT22;1458;49.728;9.228;2023-07-13T07:19:18;22.90;34.00
2897;DHT22;1458;49.728;9.228;2023-07-13T07:21:47;23.20;32.00
2897;DHT22;1458;49.728;9.228;2023-07-13T07:24:14;23.30;32.30
2897;DHT22;1458;49.728;9.228;2023-07-13T07:26:43;23.40;30.80
2897;DHT22;1458;49.728;9.228;2023-07-13T07:29:10;23.70;30.20
2897;DHT22;1458;49.728;9.228;2023-07-13T07:31:38;23.40;29.80
2897;DHT22;1458;49.728;9.228;2023-07-13T07:34:05;23.50;30.90
2897;DHT22;1458;49.728;9.228;2023-07-13T07:36:33;23.80;29.20
2897;DHT22;1458;49.728;9.228;2023-07-13T07:39:02;23.90;28.10
2897;DHT22;1458;49.728;9.228;2023-07-13T07:41:30;23.70;28.90
2897;DHT22;1458;49.728;9.228;2023-07-13T07:43:58;23.70;29.90
2897;DHT22;1458;49.728;9.228;2023-07-13T07:46:25;23.60;29.70
2897;DHT22;1458;49.728;9.228;2023-07-13T07:48:53;23.50;27.90
2897;DHT22;1458;49.728;9.228;2023-07-13T07:51:22;23.20;30.30
2897;DHT22;1458;49.728;9.228;2023-07-13T07:53:49;23.70;30.00
2897;DHT22;1458;49.728;9.228;2023-07-13T07:56:18;23.60;28.10
2897;DHT22;1458;49.728;9.228;2023-07-13T07:58:45;23.90;29.20
2897;DHT22;1458;49.728;9.228;2023-07-13T08:01:13;23.90;27.10
2897;DHT22;1458;49.728;9.228;2023-07-13T08:03:41;23.90;27.00
2897;DHT22;1458;49.728;9.228;2023-07-13T08:06:09;24.00;28.00
2897;DHT22;1458;49.728;9.228;2023-07-13T08:08:36;24.30;28.30
2897;DHT22;1458;49.728;9.228;2023-07-13T08:11:04;24.50;27.90
2897;DHT22;1458;49.728;9.228;2023-07-13T08:13:34;24.90;26.40
2897;DHT22;1458;49.728;9.228;2023-07-13T08:16:04;24.80;25.10
2897;DHT22;1458;49.728;9.228;2023-07-13T08:18:32;24.50;25.30
2897;DHT22;1458;49.728;9.228;2023-07-13T08:21:03;24.30;26.30
2897;DHT22;1458;49.728;9.228;2023-07-13T08:23:31;24.10;25.10
2897;DHT22;1458;49.728;9.228;2023-07-13T08:25:59;24.10;27.20
2897;DHT22;1458;49.728;9.228;2023-07-13T08:28:27;24.00;26.50
2897;DHT22;1458;49.728;9.228;2023-07-13T08:31:00;23.90;25.70
2897;DHT22;1458;49.728;9.228;2023-07-13T08:33:28;24.10;26.10
2897;DHT22;1458;49.728;9.228;2023-07-13T08:35:56;24.10;27.00
2897;DHT22;1458;49.728;9.228;2023-07-13T08:38:24;24.00;25.30
2897;DHT22;1458;49.728;9.228;2023-07-13T08:40:53;24.00;28.50
2897;DHT22;1458;49.728;9.228;2023-07-13T08:43:26;24.60;26.50
2897;DHT22;1458;49.728;9.228;2023-07-13T08:46:01;24.50;25.80
2897;DHT22;1458;49.728;9.228;2023-07-13T08:48:32;24.40;25.20
2897;DHT22;1458;49.728;9.228;2023-07-13T08:51:12;24.50;27.00
2897;DHT22;1458;49.728;9.228;2023-07-13T08:53:50;25.30;24.70
2897;DHT22;1458;49.728;9.228;2023-07-13T08:56:24;25.40;23.90
2897;DHT22;1458;49.728;9.228;2023-07-13T08:58:57;25.90;24.10
2897;DHT22;1458;49.728;9.228;2023-07-13T09:04:23;25.80;22.10
2897;DHT22;1458;49.728;9.228;2023-07-13T09:07:00;25.60;23.10
2897;DHT22;1458;49.728;9.228;2023-07-13T09:09:42;25.20;23.60
2897;DHT22;1458;49.728;9.228;2023-07-13T09:12:18;24.80;23.30
2897;DHT22;1458;49.728;9.228;2023-07-13T09:14:51;24.90;23.40
2897;DHT22;1458;49.728;9.228;2023-07-13T09:17:24;25.40;23.80
2897;DHT22;1458;49.728;9.228;2023-07-13T09:19:58;26.00;23.10
2897;DHT22;1458;49.728;9.228;2023-07-13T09:22:29;26.10;21.20
2897;DHT22;1458;49.728;9.228;2023-07-13T09:25:05;26.00;21.00
2897;DHT22;1458;49.728;9.228;2023-07-13T09:27:39;26.10;22.10
2897;DHT22;1458;49.728;9.228;2023-07-13T09:30:30;26.00;21.70
2897;DHT22;1458;49.728;9.228;2023-07-13T09:33:02;26.10;22.30
2897;DHT22;1458;49.728;9.228;2023-07-13T09:35:30;26.10;22.00
2897;DHT22;1458;49.728;9.228;2023-07-13T09:38:02;26.20;21.90
2897;DHT22;1458;49.728;9.228;2023-07-13T09:40:43;26.10;20.40
2897;DHT22;1458;49.728;9.228;2023-07-13T09:43:20;25.80;21.70
2897;DHT22;1458;49.728;9.228;2023-07-13T09:45:48;25.90;21.20
2897;DHT22;1458;49.728;9.228;2023-07-13T09:48:17;25.80;21.30
2897;DHT22;1458;49.728;9.228;2023-07-13T09:50:45;25.80;22.00
2897;DHT22;1458;49.728;9.228;2023-07-13T09:53:14;25.80;21.70
2897;DHT22;1458;49.728;9.228;2023-07-13T09:55:44;26.20;20.20
2897;DHT22;1458;49.728;9.228;2023-07-13T09:58:15;26.00;19.60
2897;DHT22;1458;49.728;9.228;2023-07-13T10:00:44;26.10;21.40
2897;DHT22;1458;49.728;9.228;2023-07-13T10:03:25;25.80;19.90
2897;DHT22;1458;49.728;9.228;2023-07-13T10:05:54;25.40;19.30
2897;DHT22;1458;49.728;9.228;2023-07-13T10:08:24;25.30;20.80
2897;DHT22;1458;49.728;9.228;2023-07-13T10:10:57;25.30;21.50
2897;DHT22;1458;49.728;9.228;2023-07-13T10:13:29;25.30;20.10
2897;DHT22;1458;49.728;9.228;2023-07-13T10:15:59;25.40;22.20
2897;DHT22;1458;49.728;9.228;2023-07-13T10:18:29;26.10;20.60
2897;DHT22;1458;49.728;9.228;2023-07-13T10:21:10;26.20;19.50
2897;DHT22;1458;49.728;9.228;2023-07-13T10:23:41;25.90;20.80
2897;DHT22;1458;49.728;9.228;2023-07-13T10:26:14;26.00;21.40
2897;DHT22;1458;49.728;9.228;2023-07-13T10:28:46;26.30;21.40
2897;DHT22;1458;49.728;9.228;2023-07-13T10:31:18;26.50;21.10
2897;DHT22;1458;49.728;9.228;2023-07-13T10:33:48;26.80;20.20
2897;DHT22;1458;49.728;9.228;2023-07-13T10:36:28;26.80;19.50
2897;DHT22;1458;49.728;9.228;2023-07-13T10:39:03;26.90;18.80
2897;DHT22;1458;49.728;9.228;2023-07-13T10:41:35;26.70;19.10
2897;DHT22;1458;49.728;9.228;2023-07-13T10:44:14;27.00;19.20
2897;DHT22;1458;49.728;9.228;2023-07-13T10:46:46;26.70;18.20
2897;DHT22;1458;49.728;9.228;2023-07-13T10:49:16;26.30;20.00
2897;DHT22;1458;49.728;9.228;2023-07-13T10:51:45;26.10;18.60
2897;DHT22;1458;49.728;9.228;2023-07-13T10:54:18;26.00;18.90
2897;DHT22;1458;49.728;9.228;2023-07-13T10:56:54;25.80;20.40
2897;DHT22;1458;49.728;9.228;2023-07-13T10:59:35;25.70;20.10
2897;DHT22;1458;49.728;9.228;2023-07-13T11:02:11;25.80;20.60
2897;DHT22;1458;49.728;9.228;2023-07-13T11:04:44;26.10;19.10
2897;DHT22;1458;49.728;9.228;2023-07-13T11:07:20;25.70;19.80
2897;DHT22;1458;49.728;9.228;2023-07-13T11:09:50;25.70;20.40
2897;DHT22;1458;49.728;9.228;2023-07-13T11:12:50;26.00;19.40
2897;DHT22;1458;49.728;9.228;2023-07-13T11:15:32;26.30;18.60
2897;DHT22;1458;49.728;9.228;2023-07-13T11:18:20;26.50;18.70
2897;DHT22;1458;49.728;9.228;2023-07-13T11:20:52;26.80;17.90
2897;DHT22;1458;49.728;9.228;2023-07-13T11:23:43;26.50;18.00
2897;DHT22;1458;49.728;9.228;2023-07-13T11:26:38;26.80;18.00
2897;DHT22;1458;49.728;9.228;2023-07-13T11:29:09;26.90;19.30
2897;DHT22;1458;49.728;9.228;2023-07-13T11:31:39;26.90;18.60
2897;DHT22;1458;49.728;9.228;2023-07-13T11:34:13;27.20;17.80
2897;DHT22;1458;49.728;9.228;2023-07-13T11:36:44;27.40;17.70
2897;DHT22;1458;49.728;9.228;2023-07-13T11:39:17;27.40;17.00
2897;DHT22;1458;49.728;9.228;2023-07-13T11:41:50;27.70;16.50
2897;DHT22;1458;49.728;9.228;2023-07-13T11:44:20;27.40;14.70
2897;DHT22;1458;49.728;9.228;2023-07-13T11:46:51;26.80;15.50
2897;DHT22;1458;49.728;9.228;2023-07-13T11:49:20;26.30;16.80
2897;DHT22;1458;49.728;9.228;2023-07-13T11:51:52;25.60;18.60
2897;DHT22;1458;49.728;9.228;2023-07-13T11:54:24;25.80;18.10
2897;DHT22;1458;49.728;9.228;2023-07-13T11:56:56;26.10;19.90
2897;DHT22;1458;49.728;9.228;2023-07-13T11:59:27;26.60;16.90
2897;DHT22;1458;49.728;9.228;2023-07-13T12:01:58;26.30;17.90
2897;DHT22;1458;49.728;9.228;2023-07-13T12:04:28;26.30;17.80
2897;DHT22;1458;49.728;9.228;2023-07-13T12:07:05;26.60;19.40
2897;DHT22;1458;49.728;9.228;2023-07-13T12:09:35;27.30;16.30
2897;DHT22;1458;49.728;9.228;2023-07-13T12:12:03;27.90;15.20
2897;DHT22;1458;49.728;9.228;2023-07-13T12:14:35;27.60;14.80
2897;DHT22;1458;49.728;9.228;2023-07-13T12:17:08;27.30;15.20
2897;DHT22;1458;49.728;9.228;2023-07-13T12:19:38;26.90;15.10
2897;DHT22;1458;49.728;9.228;2023-07-13T12:22:12;26.80;15.10
2897;DHT22;1458;49.728;9.228;2023-07-13T12:24:41;26.70;16.30
2897;DHT22;1458;49.728;9.228;2023-07-13T12:27:19;26.60;15.50
2897;DHT22;1458;49.728;9.228;2023-07-13T12:29:53;26.30;17.20
2897;DHT22;1458;49.728;9.228;2023-07-13T12:32:26;26.20;16.20
2897;DHT22;1458;49.728;9.228;2023-07-13T12:35:01;26.00;16.10
2897;DHT22;1458;49.728;9.228;2023-07-13T12:37:43;26.30;16.40
2897;DHT22;1458;49.728;9.228;2023-07-13T12:40:14;26.50;16.80
2897;DHT22;1458;49.728;9.228;2023-07-13T12:42:46;26.80;15.00
2897;DHT22;1458;49.728;9.228;2023-07-13T12:45:23;27.20;16.70
2897;DHT22;1458;49.728;9.228;2023-07-13T12:47:54;27.00;14.30
2897;DHT22;1458;49.728;9.228;2023-07-13T12:50:36;27.10;14.60
2897;DHT22;1458;49.728;9.228;2023-07-13T12:53:13;27.10;12.90
2897;DHT22;1458;49.728;9.228;2023-07-13T12:55:47;26.60;12.90
2897;DHT22;1458;49.728;9.228;2023-07-13T12:58:22;26.30;14.60
2897;DHT22;1458;49.728;9.228;2023-07-13T13:00:54;26.80;14.60
2897;DHT22;1458;49.728;9.228;2023-07-13T13:03:27;27.20;13.70
2897;DHT22;1458;49.728;9.228;2023-07-13T13:06:02;27.10;14.00
2897;DHT22;1458;49.728;9.228;2023-07-13T13:08:34;27.00;14.60
2897;DHT22;1458;49.728;9.228;2023-07-13T13:11:02;26.80;15.50
2897;DHT22;1458;49.728;9.228;2023-07-13T13:13:30;26.60;15.10
2897;DHT22;1458;49.728;9.228;2023-07-13T13:16:02;26.80;15.20
2897;DHT22;1458;49.728;9.228;2023-07-13T13:18:31;27.00;15.10
2897;DHT22;1458;49.728;9.228;2023-07-13T13:20:59;27.20;14.60
2897;DHT22;1458;49.728;9.228;2023-07-13T13:23:26;27.30;14.80
2897;DHT22;1458;49.728;9.228;2023-07-13T13:25:55;28.00;13.40
2897;DHT22;1458;49.728;9.228;2023-07-13T13:28:23;28.00;13.40
2897;DHT22;1458;49.728;9.228;2023-07-13T13:30:51;27.60;13.20
2897;DHT22;1458;49.728;9.228;2023-07-13T13:33:20;27.60;13.80
2897;DHT22;1458;49.728;9.228;2023-07-13T13:35:49;27.30;13.80
2897;DHT22;1458;49.728;9.228;2023-07-13T13:38:20;27.10;14.70
2897;DHT22;1458;49.728;9.228;2023-07-13T13:40:51;27.10;14.00
2897;DHT22;1458;49.728;9.228;2023-07-13T13:43:22;27.00;13.50
2897;DHT22;1458;49.728;9.228;2023-07-13T13:45:54;26.90;12.70
2897;DHT22;1458;49.728;9.228;2023-07-13T13:48:28;26.40;14.60
2897;DHT22;1458;49.728;9.228;2023-07-13T13:50:58;26.20;14.70
2897;DHT22;1458;49.728;9.228;2023-07-13T13:53:27;26.30;15.40
2897;DHT22;1458;49.728;9.228;2023-07-13T13:55:54;26.40;15.30
2897;DHT22;1458;49.728;9.228;2023-07-13T13:58:23;26.30;14.50
2897;DHT22;1458;49.728;9.228;2023-07-13T14:00:50;26.50;15.40
2897;DHT22;1458;49.728;9.228;2023-07-13T14:03:19;26.60;15.00
2897;DHT22;1458;49.728;9.228;2023-07-13T14:05:48;26.60;14.90
2897;DHT22;1458;49.728;9.228;2023-07-13T14:08:18;26.40;13.60
2897;DHT22;1458;49.728;9.228;2023-07-13T14:10:48;26.30;15.20
2897;DHT22;1458;49.728;9.228;2023-07-13T14:13:24;26.30;15.70
2897;DHT22;1458;49.728;9.228;2023-07-13T14:15:53;26.50;15.30
2897;DHT22;1458;49.728;9.228;2023-07-13T14:18:21;26.60;16.20
2897;DHT22;1458;49.728;9.228;2023-07-13T14:20:50;26.60;14.80
2897;DHT22;1458;49.728;9.228;2023-07-13T14:23:19;26.60;15.50
2897;DHT22;1458;49.728;9.228;2023-07-13T14:25:47;26.70;14.70
2897;DHT22;1458;49.728;9.228;2023-07-13T14:28:20;26.60;15.10
2897;DHT22;1458;49.728;9.228;2023-07-13T14:30:50;26.30;16.00
2897;DHT22;1458;49.728;9.228;2023-07-13T14:33:18;26.00;16.50
2897;DHT22;1458;49.728;9.228;2023-07-13T14:35:45;26.10;17.10
2897;DHT22;1458;49.728;9.228;2023-07-13T14:38:16;26.10;17.60
2897;DHT22;1458;49.728;9.228;2023-07-13T14:40:45;26.30;16.40
2897;DHT22;1458;49.728;9.228;2023-07-13T14:43:14;26.40;16.90
2897;DHT22;1458;49.728;9.228;2023-07-13T14:45:47;26.50;15.90
2897;DHT22;1458;49.728;9.228;2023-07-13T14:48:18;26.50;17.00
2897;DHT22;1458;49.728;9.228;2023-07-13T14:50:53;26.90;16.00
2897;DHT22;1458;49.728;9.228;2023-07-13T14:53:21;27.20;15.70
2897;DHT22;1458;49.728;9.228;2023-07-13T14:55:49;27.20;14.40
2897;DHT22;1458;49.728;9.228;2023-07-13T14:58:17;27.50;14.50
2897;DHT22;1458;49.728;9.228;2023-07-13T15:00:45;27.50;12.00
2897;DHT22;1458;49.728;9.228;2023-07-13T15:03:19;27.30;13.50
2897;DHT22;1458;49.728;9.228;2023-07-13T15:05:51;27.40;13.10
2897;DHT22;1458;49.728;9.228;2023-07-13T15:08:18;27.10;13.00
2897;DHT22;1458;49.728;9.228;2023-07-13T15:10:46;26.70;14.60
2897;DHT22;1458;49.728;9.228;2023-07-13T15:13:16;26.40;15.00
2897;DHT22;1458;49.728;9.228;2023-07-13T15:15:46;26.20;16.10
2897;DHT22;1458;49.728;9.228;2023-07-13T15:18:17;26.20;17.10
2897;DHT22;1458;49.728;9.228;2023-07-13T15:20:48;26.50;16.20
2897;DHT22;1458;49.728;9.228;2023-07-13T15:23:18;26.70;15.70
2897;DHT22;1458;49.728;9.228;2023-07-13T15:25:46;26.90;16.20
2897;DHT22;1458;49.728;9.228;2023-07-13T15:28:13;27.10;14.30
2897;DHT22;1458;49.728;9.228;2023-07-13T15:30:42;27.30;14.40
2897;DHT22;1458;49.728;9.228;2023-07-13T15:33:14;27.30;14.00
2897;DHT22;1458;49.728;9.228;2023-07-13T15:35:44;27.00;14.50
2897;DHT22;1458;49.728;9.228;2023-07-13T15:38:15;26.80;14.70
2897;DHT22;1458;49.728;9.228;2023-07-13T15:40:44;26.40;14.80
2897;DHT22;1458;49.728;9.228;2023-07-13T15:43:12;26.20;16.00
2897;DHT22;1458;49.728;9.228;2023-07-13T15:45:41;26.10;16.50
2897;DHT22;1458;49.728;9.228;2023-07-13T15:48:17;26.10;16.60
2897;DHT22;1458;49.728;9.228;2023-07-13T15:50:49;26.20;16.30
2897;DHT22;1458;49.728;9.228;2023-07-13T15:53:19;26.40;16.20
2897;DHT22;1458;49.728;9.228;2023-07-13T15:55:49;26.40;15.80
2897;DHT22;1458;49.728;9.228;2023-07-13T15:58:17;26.20;15.30
2897;DHT22;1458;49.728;9.228;2023-07-13T16:00:46;26.10;16.10
2897;DHT22;1458;49.728;9.228;2023-07-13T16:03:18;26.00;16.20
2897;DHT22;1458;49.728;9.228;2023-07-13T16:05:46;25.90;15.90
2897;DHT22;1458;49.728;9.228;2023-07-13T16:08:24;26.00;16.10
2897;DHT22;1458;49.728;9.228;2023-07-13T16:10:53;25.90;17.20
2897;DHT22;1458;49.728;9.228;2023-07-13T16:13:21;25.90;17.10
2897;DHT22;1458;49.728;9.228;2023-07-13T16:15:50;26.10;16.90
2897;DHT22;1458;49.728;9.228;2023-07-13T16:18:20;26.00;16.20
2897;DHT22;1458;49.728;9.228;2023-07-13T16:20:48;25.90;16.50
2897;DHT22;1458;49.728;9.228;2023-07-13T16:23:17;25.90;17.20
2897;DHT22;1458;49.728;9.228;2023-07-13T16:25:45;25.90;16.80